createdAt,value
2018-06-04T00:01:03.096Z,77.27
2018-06-04T00:03:31.275Z,72.07
2018-06-04T00:05:59.406Z,72.90
2018-06-04T00:08:27.767Z,67.63
2018-06-04T00:10:55.702Z,72.43
2018-06-04T00:13:23.880Z,72.03
2018-06-04T00:15:51.976Z,69.50
2018-06-04T00:18:20.407Z,69.10
2018-06-04T00:20:48.431Z,72.90
2018-06-04T00:23:16.473Z,71.77
2018-06-04T00:25:44.412Z,69.63
2018-06-04T00:28:12.910Z,76.17
2018-06-04T00:30:41.014Z,77.30
2018-06-04T00:33:09.260Z,79.63
2018-06-04T00:35:38.481Z,84.30
2018-06-04T00:38:06.550Z,87.40
2018-06-04T00:40:34.899Z,82.87
2018-06-04T00:43:02.806Z,80.53
2018-06-04T00:45:31.054Z,79.83
2018-06-04T00:47:59.131Z,84.90
2018-06-04T00:50:27.369Z,89.07
2018-06-04T00:52:55.883Z,83.20
2018-06-04T00:55:23.950Z,74.90
2018-06-04T00:57:51.828Z,78.20
2018-06-04T01:00:19.887Z,79.03
2018-06-04T01:02:47.964Z,83.90
2018-06-04T01:05:16.192Z,73.63
2018-06-04T01:07:44.512Z,68.90
2018-06-04T01:10:12.830Z,67.93
2018-06-04T01:12:40.847Z,70.33
2018-06-04T01:15:08.834Z,71.27
2018-06-04T01:17:36.792Z,72.47
2018-06-04T01:20:05.071Z,71.80
2018-06-04T01:22:33.119Z,70.87
2018-06-04T01:25:01.624Z,71.47
2018-06-04T01:27:29.694Z,70.17
2018-06-04T01:29:57.956Z,55.63
2018-06-04T01:32:26.040Z,66.00
2018-06-04T01:34:54.199Z,69.17
2018-06-04T01:37:22.288Z,69.93
2018-06-04T01:39:50.098Z,71.40
2018-06-04T01:42:18.298Z,68.63
2018-06-04T01:44:46.227Z,73.73
2018-06-04T01:47:15.439Z,61.07
2018-06-04T01:49:43.551Z,69.10
2018-06-04T01:52:11.623Z,62.47
2018-06-04T01:54:39.718Z,61.90
2018-06-04T01:57:07.759Z,70.97
2018-06-04T01:59:35.836Z,68.40
2018-06-04T02:02:03.908Z,65.20
2018-06-04T02:04:31.782Z,66.07
2018-06-04T02:06:59.853Z,70.07
2018-06-04T02:09:27.767Z,41.90
2018-06-04T02:11:55.931Z,63.30
2018-06-04T02:14:24.250Z,56.83
2018-06-04T02:16:52.725Z,71.93
2018-06-04T02:19:21.015Z,67.17
2018-06-04T02:21:48.991Z,63.77
2018-06-04T02:24:17.015Z,56.47
2018-06-04T02:26:45.240Z,57.17
2018-06-04T02:29:13.516Z,63.87
2018-06-04T02:31:41.571Z,67.50
2018-06-04T02:34:09.856Z,68.53
2018-06-04T02:36:37.830Z,65.30
2018-06-04T02:39:06.915Z,58.13
2018-06-04T02:41:35.068Z,45.77
2018-06-04T02:44:03.570Z,61.20
2018-06-04T02:46:31.505Z,61.73
2018-06-04T02:48:59.432Z,53.27
2018-06-04T02:51:27.398Z,63.97
2018-06-04T02:53:55.487Z,63.30
2018-06-04T02:56:23.427Z,56.70
2018-06-04T02:58:51.411Z,63.20
2018-06-04T03:01:20.085Z,52.93
2018-06-04T03:03:48.341Z,55.83
2018-06-04T03:06:16.397Z,63.57
2018-06-04T03:08:44.494Z,61.73
2018-06-04T03:11:12.528Z,61.30
2018-06-04T03:13:40.589Z,63.03
2018-06-04T03:16:08.701Z,64.70
2018-06-04T03:18:36.661Z,62.83
2018-06-04T03:21:04.639Z,73.17
2018-06-04T03:23:32.719Z,69.90
2018-06-04T03:26:00.740Z,64.00
2018-06-04T03:28:28.846Z,70.60
2018-06-04T03:30:56.797Z,69.33
2018-06-04T03:33:25.017Z,70.03
2018-06-04T03:35:53.252Z,66.53
2018-06-04T03:38:21.355Z,70.63
2018-06-04T03:40:49.590Z,75.20
2018-06-04T03:43:17.705Z,77.37
2018-06-04T03:45:45.956Z,68.83
2018-06-04T03:48:14.080Z,70.00
2018-06-04T03:50:42.144Z,67.60
2018-06-04T03:53:10.025Z,71.53
2018-06-04T03:55:38.317Z,73.37
2018-06-04T03:58:06.416Z,68.50
2018-06-04T04:00:34.385Z,65.57
2018-06-04T04:03:02.436Z,66.73
2018-06-04T04:05:30.450Z,67.90
2018-06-04T04:07:59.584Z,68.40
2018-06-04T04:10:27.514Z,70.53
2018-06-04T04:12:55.513Z,68.00
2018-06-04T04:15:23.433Z,72.63
2018-06-04T04:17:52.625Z,71.50
2018-06-04T04:20:20.532Z,63.17
2018-06-04T04:22:48.478Z,65.83
2018-06-04T04:25:16.392Z,60.23
2018-06-04T04:27:44.461Z,60.57
2018-06-04T04:30:12.400Z,63.13
2018-06-04T04:32:40.509Z,62.43
2018-06-04T04:35:08.411Z,62.50
2018-06-04T04:37:36.378Z,59.40
2018-06-04T04:40:04.296Z,61.00
2018-06-04T04:42:32.210Z,61.27
2018-06-04T04:45:00.144Z,62.10
2018-06-04T04:47:28.251Z,61.37
2018-06-04T04:49:56.189Z,49.47
2018-06-04T04:52:24.230Z,54.03
2018-06-04T04:54:52.198Z,59.93
2018-06-04T04:57:21.426Z,56.23
2018-06-04T04:59:49.369Z,53.23
2018-06-04T05:02:17.414Z,56.53
2018-06-04T05:04:45.356Z,56.57
2018-06-04T05:07:13.331Z,55.90
2018-06-04T05:09:41.258Z,59.77
2018-06-04T05:12:09.277Z,48.50
2018-06-04T05:14:37.256Z,55.13
2018-06-04T05:17:05.308Z,55.23
2018-06-04T05:19:33.275Z,54.97
2018-06-04T05:22:01.287Z,55.23
2018-06-04T05:24:29.174Z,54.33
2018-06-04T05:26:57.230Z,50.53
2018-06-04T05:29:25.157Z,60.57
2018-06-04T05:31:56.507Z,52.30
2018-06-04T05:34:24.416Z,54.33
2018-06-04T05:36:52.208Z,50.47
2018-06-04T05:39:20.086Z,55.93
2018-06-04T05:41:48.063Z,45.37
2018-06-04T05:44:16.039Z,47.77
2018-06-04T05:46:44.218Z,55.43
2018-06-04T05:49:12.148Z,56.20
2018-06-04T05:51:40.363Z,57.73
2018-06-04T05:54:08.276Z,54.47
2018-06-04T05:56:36.503Z,49.63
2018-06-04T05:59:04.491Z,51.80
2018-06-04T06:01:33.638Z,45.67
2018-06-04T06:04:01.546Z,53.57
2018-06-04T06:06:29.672Z,45.13
2018-06-04T06:08:57.682Z,45.57
2018-06-04T06:11:25.725Z,54.00
2018-06-04T06:13:53.618Z,50.20
2018-06-04T06:16:22.388Z,46.87
2018-06-04T06:18:50.325Z,49.13
2018-06-04T06:21:18.135Z,50.90
2018-06-04T06:23:46.089Z,42.83
2018-06-04T06:26:14.191Z,54.83
2018-06-04T06:28:42.106Z,56.07
2018-06-04T06:31:10.331Z,55.57
2018-06-04T06:33:38.239Z,56.43
2018-06-04T06:36:06.448Z,57.33
2018-06-04T06:38:34.316Z,49.97
2018-06-04T06:41:03.963Z,57.70
2018-06-04T06:43:33.436Z,57.97
2018-06-04T06:46:01.574Z,56.70
2018-06-04T06:48:29.502Z,62.93
2018-06-04T06:50:57.434Z,57.90
2018-06-04T06:53:25.433Z,54.50
2018-06-04T06:55:53.383Z,58.90
2018-06-04T06:58:21.279Z,60.83
2018-06-04T07:00:49.198Z,57.10
2018-06-04T07:03:17.120Z,57.77
2018-06-04T07:05:45.002Z,60.93
2018-06-04T07:08:12.898Z,56.97
2018-06-04T07:10:40.867Z,53.30
2018-06-04T07:13:09.164Z,58.43
2018-06-04T07:15:37.119Z,58.03
2018-06-04T07:18:05.089Z,57.77
2018-06-04T07:20:33.103Z,56.10
2018-06-04T07:23:00.967Z,52.03
2018-06-04T07:25:29.172Z,55.00
2018-06-04T07:27:57.233Z,46.97
2018-06-04T07:30:25.135Z,53.40
2018-06-04T07:32:53.028Z,53.43
2018-06-04T07:35:20.937Z,50.83
2018-06-04T07:37:48.872Z,45.47
2018-06-04T07:40:16.799Z,53.10
2018-06-04T07:42:44.710Z,49.63
2018-06-04T07:45:12.626Z,50.43
2018-06-04T07:47:40.534Z,46.27
2018-06-04T07:50:10.381Z,53.63
2018-06-04T07:52:38.252Z,50.80
2018-06-04T07:55:06.375Z,51.50
2018-06-04T07:57:34.238Z,48.97
2018-06-04T08:00:02.295Z,49.53
2018-06-04T08:02:30.210Z,52.60
2018-06-04T08:04:58.130Z,51.20
2018-06-04T08:07:26.061Z,58.13
2018-06-04T08:09:54.101Z,48.87
2018-06-04T08:12:22.054Z,52.03
2018-06-04T08:14:50.005Z,52.30
2018-06-04T08:17:17.907Z,50.20
2018-06-04T08:19:45.933Z,45.07
2018-06-04T08:22:13.908Z,45.70
2018-06-04T08:24:41.891Z,49.13
2018-06-04T08:27:09.824Z,46.83
2018-06-04T08:29:37.839Z,45.23
2018-06-04T08:32:05.786Z,45.70
2018-06-04T08:34:33.768Z,43.60
2018-06-04T08:37:01.666Z,47.20
2018-06-04T08:39:29.723Z,48.63
2018-06-04T08:41:57.576Z,47.40
2018-06-04T08:44:25.581Z,46.90
2018-06-04T08:46:53.451Z,45.47
2018-06-04T08:49:22.447Z,50.70
2018-06-04T08:51:50.217Z,50.70
2018-06-04T08:54:18.253Z,51.13
2018-06-04T08:56:46.139Z,47.87
2018-06-04T08:59:14.122Z,45.40
2018-06-04T09:01:41.884Z,42.37
2018-06-04T09:04:09.850Z,43.60
2018-06-04T09:06:37.745Z,41.93
2018-06-04T09:09:06.498Z,37.97
2018-06-04T09:11:34.434Z,39.23
2018-06-04T09:14:02.395Z,42.93
2018-06-04T09:16:30.308Z,36.70
2018-06-04T09:18:58.209Z,37.80
2018-06-04T09:21:26.120Z,44.70
2018-06-04T09:23:53.913Z,42.50
2018-06-04T09:26:21.851Z,42.37
2018-06-04T09:28:49.997Z,41.17
2018-06-04T09:31:17.956Z,43.53
2018-06-04T09:33:45.929Z,41.50
2018-06-04T09:36:13.784Z,42.00
2018-06-04T09:38:41.831Z,43.80
2018-06-04T09:41:09.769Z,47.43
2018-06-04T09:43:37.703Z,45.10
2018-06-04T09:46:05.684Z,40.53
2018-06-04T09:48:33.600Z,45.30
2018-06-04T09:51:01.517Z,47.00
2018-06-04T09:53:29.634Z,45.33
2018-06-04T09:55:57.607Z,42.00
2018-06-04T09:58:25.508Z,43.23
2018-06-04T10:00:53.414Z,40.53
2018-06-04T10:03:21.355Z,38.90
2018-06-04T10:05:49.276Z,43.30
2018-06-04T10:08:20.685Z,41.33
2018-06-04T10:10:48.630Z,42.43
2018-06-04T10:13:16.608Z,44.33
2018-06-04T10:15:44.513Z,43.47
2018-06-04T10:18:13.594Z,44.67
2018-06-04T10:20:41.522Z,40.93
2018-06-04T10:23:09.772Z,43.90
2018-06-04T10:25:37.527Z,40.67
2018-06-04T10:28:05.590Z,42.60
2018-06-04T10:30:33.519Z,44.77
2018-06-04T10:33:02.535Z,41.47
2018-06-04T10:35:30.610Z,40.57
2018-06-04T10:37:58.568Z,47.67
2018-06-04T10:40:26.491Z,45.27
2018-06-04T10:42:54.485Z,47.57
2018-06-04T10:45:22.402Z,48.03
2018-06-04T10:47:50.331Z,50.20
2018-06-04T10:50:18.288Z,49.97
2018-06-04T10:52:46.252Z,49.93
2018-06-04T10:55:14.171Z,53.60
2018-06-04T10:57:42.137Z,41.97
2018-06-04T11:00:09.891Z,52.60
2018-06-04T11:02:37.823Z,47.60
2018-06-04T11:05:05.741Z,46.23
2018-06-04T11:07:33.754Z,47.30
2018-06-04T11:10:01.692Z,49.33
2018-06-04T11:12:29.682Z,48.97
2018-06-04T11:21:42.574Z,43.20
2018-06-04T11:24:10.518Z,44.70
2018-06-04T11:26:38.506Z,43.47
2018-06-04T11:29:06.424Z,42.70
2018-06-04T11:31:34.442Z,45.83
2018-06-04T11:34:02.358Z,45.37
2018-06-04T11:36:30.623Z,49.10
2018-06-04T11:38:58.498Z,47.00
2018-06-04T11:41:26.521Z,45.47
2018-06-04T11:43:54.545Z,60.78
2018-06-04T11:46:22.466Z,60.17
2018-06-04T11:48:50.381Z,60.48
2018-06-04T11:51:18.495Z,49.70
2018-06-04T11:53:46.413Z,51.27
2018-06-04T11:56:14.484Z,47.50
2018-06-04T11:58:42.440Z,44.80
2018-06-04T12:01:10.380Z,45.07
2018-06-04T12:03:38.451Z,41.53
2018-06-04T12:06:06.421Z,42.63
2018-06-04T12:08:34.324Z,40.70
2018-06-04T12:11:02.326Z,38.83
2018-06-04T12:13:30.242Z,37.70
2018-06-04T12:15:58.177Z,44.53
2018-06-04T12:18:26.096Z,40.63
2018-06-04T12:20:54.104Z,42.67
2018-06-04T12:23:22.028Z,38.73
2018-06-04T12:25:52.126Z,38.27
2018-06-04T12:28:20.020Z,39.00
2018-06-04T12:30:50.069Z,40.03
2018-06-04T12:33:18.188Z,35.00
2018-06-04T12:35:46.002Z,39.90
2018-06-04T12:38:13.937Z,40.17
2018-06-04T12:40:45.515Z,40.58
2018-06-04T12:43:13.889Z,40.15
2018-06-04T12:45:41.882Z,39.17
2018-06-04T12:48:09.661Z,35.17
2018-06-04T12:50:38.805Z,36.93
2018-06-04T12:53:08.104Z,39.60
2018-06-04T12:55:36.583Z,36.42
2018-06-04T12:58:04.695Z,37.30
2018-06-04T13:00:32.794Z,42.83
2018-06-04T13:03:00.825Z,38.78
2018-06-04T13:05:29.000Z,41.28
2018-06-04T13:07:57.276Z,38.70
2018-06-04T13:10:28.856Z,44.25
2018-06-04T13:12:56.875Z,44.05
2018-06-04T13:15:25.169Z,44.33
2018-06-04T13:17:53.051Z,43.30
2018-06-04T13:20:21.294Z,40.58
2018-06-04T13:22:49.566Z,48.02
2018-06-04T13:25:17.622Z,43.52
2018-06-04T13:27:45.744Z,46.37
2018-06-04T13:30:13.988Z,44.83
2018-06-04T13:32:42.060Z,41.48
2018-06-04T13:35:10.364Z,44.65
2018-06-04T13:37:38.609Z,43.58
2018-06-04T13:40:06.858Z,57.58
2018-06-04T13:42:35.002Z,37.38
2018-06-04T13:45:03.260Z,36.68
2018-06-04T13:47:31.295Z,39.30
2018-06-04T13:49:59.579Z,35.90
2018-06-04T13:52:27.530Z,41.20
2018-06-04T13:54:55.701Z,40.80
2018-06-04T13:57:24.090Z,39.23
2018-06-04T13:59:52.303Z,39.40
2018-06-04T14:02:20.287Z,46.20
2018-06-04T14:04:49.393Z,43.13
2018-06-04T14:07:17.609Z,40.95
2018-06-04T14:09:45.654Z,36.08
2018-06-04T14:12:13.634Z,42.95
2018-06-04T14:14:41.522Z,37.38
2018-06-04T14:17:09.993Z,43.58
2018-06-04T14:19:38.065Z,43.35
2018-06-04T14:22:05.982Z,43.35
2018-06-04T14:24:35.220Z,37.08
2018-06-04T14:27:03.177Z,46.50
2018-06-04T14:29:31.165Z,42.75
2018-06-04T14:31:59.558Z,43.00
2018-06-04T14:34:28.120Z,41.37
2018-06-04T14:36:56.423Z,40.33
2018-06-04T14:39:29.443Z,37.28
2018-06-04T14:41:57.654Z,35.83
2018-06-04T14:44:28.028Z,34.60
2018-06-04T14:46:56.301Z,29.85
2018-06-04T14:49:29.746Z,33.13
2018-06-04T14:51:58.835Z,30.95
2018-06-04T14:54:31.660Z,35.90
2018-06-04T14:56:59.752Z,32.90
2018-06-04T14:59:27.994Z,39.75
2018-06-04T15:01:56.469Z,40.40
2018-06-04T15:04:28.837Z,43.10
2018-06-04T15:06:56.808Z,34.43
2018-06-04T15:09:25.170Z,28.90
2018-06-04T15:11:53.553Z,28.65
2018-06-04T15:14:23.826Z,29.87
2018-06-04T15:16:53.806Z,28.00
2018-06-04T15:19:22.166Z,31.20
2018-06-04T15:21:50.484Z,29.42
2018-06-04T15:24:20.970Z,24.95
2018-06-04T15:26:49.497Z,26.00
2018-06-04T15:29:29.609Z,27.15
2018-06-04T15:31:57.708Z,25.17
2018-06-04T15:34:29.671Z,27.15
2018-06-04T15:36:57.967Z,25.27
2018-06-04T15:39:26.213Z,24.20
2018-06-04T15:41:54.344Z,24.60
2018-06-04T15:44:27.852Z,24.30
2018-06-04T15:46:55.957Z,21.02
2018-06-04T15:49:24.373Z,21.15
2018-06-04T15:51:52.301Z,23.35
2018-06-04T15:54:21.400Z,18.57
2018-06-04T15:56:49.452Z,23.02
2018-06-04T15:59:17.734Z,21.55
2018-06-04T16:01:45.652Z,21.05
2018-06-04T16:04:14.022Z,20.82
2018-06-04T16:06:42.025Z,21.35
2018-06-04T16:09:10.650Z,21.85
2018-06-04T16:11:38.932Z,19.30
2018-06-04T16:14:08.371Z,18.52
2018-06-04T16:16:36.279Z,21.85
2018-06-04T16:19:04.749Z,19.73
2018-06-04T16:21:33.018Z,17.57
2018-06-04T16:24:02.135Z,17.43
2018-06-04T16:26:30.101Z,20.50
2018-06-04T16:28:58.260Z,20.08
2018-06-04T16:31:27.552Z,17.73
2018-06-04T16:33:55.710Z,18.87
2018-06-04T16:36:23.911Z,18.12
2018-06-04T16:38:52.259Z,16.12
2018-06-04T16:41:20.696Z,14.97
2018-06-04T16:43:48.944Z,16.90
2018-06-04T16:46:17.060Z,19.30
2018-06-04T16:48:45.479Z,15.77
2018-06-04T16:51:13.465Z,18.50
2018-06-04T16:53:42.993Z,16.83
2018-06-04T16:56:11.241Z,19.87
2018-06-04T16:58:39.734Z,19.07
2018-06-04T17:01:07.771Z,17.23
2018-06-04T17:03:36.089Z,20.48
2018-06-04T17:06:04.126Z,16.80
2018-06-04T17:08:32.458Z,17.62
2018-06-04T17:11:00.500Z,15.27
2018-06-04T17:13:28.483Z,18.83
2018-06-04T17:15:56.425Z,20.20
2018-06-04T17:18:24.949Z,19.80
2018-06-04T17:20:52.758Z,20.83
2018-06-04T17:23:20.822Z,15.10
2018-06-04T17:25:48.888Z,19.87
2018-06-04T17:28:17.250Z,21.13
2018-06-04T17:30:45.509Z,16.33
2018-06-04T17:33:14.035Z,20.07
2018-06-04T17:35:42.304Z,21.97
2018-06-04T17:38:11.013Z,21.57
2018-06-04T17:40:39.272Z,26.53
2018-06-04T17:43:07.695Z,20.77
2018-06-04T17:45:35.472Z,23.90
2018-06-04T17:48:03.986Z,26.62
2018-06-04T17:50:31.996Z,28.07
2018-06-04T17:53:00.451Z,28.38
2018-06-04T17:55:28.554Z,21.63
2018-06-04T17:57:56.823Z,22.27
2018-06-04T18:00:24.800Z,20.30
2018-06-04T18:02:52.951Z,19.60
2018-06-04T18:05:20.944Z,23.83
2018-06-04T18:07:49.283Z,21.73
2018-06-04T18:10:17.382Z,21.67
2018-06-04T18:12:45.585Z,21.87
2018-06-04T18:15:13.913Z,17.43
2018-06-04T18:17:42.380Z,22.10
2018-06-04T18:20:10.570Z,18.47
2018-06-04T18:22:38.931Z,22.10
2018-06-04T18:25:06.872Z,22.20
2018-06-04T18:27:35.392Z,14.63
2018-06-04T18:30:03.496Z,20.73
2018-06-04T18:32:32.922Z,17.87
2018-06-04T18:35:01.114Z,15.53
2018-06-04T18:37:29.576Z,18.83
2018-06-04T18:39:57.717Z,15.50
2018-06-04T18:42:26.805Z,17.30
2018-06-04T18:44:55.035Z,17.57
2018-06-04T18:47:23.111Z,17.83
2018-06-04T18:49:51.441Z,11.93
2018-06-04T18:52:19.622Z,17.33
2018-06-04T18:54:47.944Z,18.00
2018-06-04T18:57:17.856Z,20.50
2018-06-04T18:59:45.917Z,19.13
2018-06-04T19:02:14.013Z,17.83
2018-06-04T19:04:42.235Z,16.77
2018-06-04T19:07:10.372Z,20.97
2018-06-04T19:09:38.430Z,21.13
2018-06-04T19:12:06.733Z,23.40
2018-06-04T19:14:35.240Z,20.87
2018-06-04T19:17:03.420Z,22.33
2018-06-04T19:19:31.528Z,21.37
2018-06-04T19:21:59.810Z,21.27
2018-06-04T19:24:27.970Z,21.23
2018-06-04T19:26:56.524Z,21.50
2018-06-04T19:29:24.493Z,20.03
2018-06-04T19:31:52.621Z,25.27
2018-06-04T19:34:20.547Z,24.07
2018-06-04T19:36:48.635Z,25.43
2018-06-04T19:39:16.935Z,28.40
2018-06-04T19:41:45.042Z,25.90
2018-06-04T19:44:13.097Z,29.30
2018-06-04T19:46:41.295Z,29.57
2018-06-04T19:49:09.417Z,27.63
2018-06-04T19:51:37.370Z,27.43
2018-06-04T19:54:05.567Z,31.63
2018-06-04T19:56:33.797Z,26.83
2018-06-04T19:59:01.945Z,30.90
2018-06-04T20:01:30.499Z,34.30
2018-06-04T20:03:58.635Z,30.93
2018-06-04T20:06:26.855Z,32.07
2018-06-04T20:08:55.019Z,31.97
2018-06-04T20:11:23.091Z,30.87
2018-06-04T20:13:51.124Z,35.90
2018-06-04T20:16:42.335Z,35.57
2018-06-04T20:19:10.543Z,33.00
2018-06-04T20:21:38.619Z,32.40
2018-06-04T20:24:06.899Z,33.13
2018-06-04T20:26:34.719Z,33.47
2018-06-04T20:29:02.940Z,32.97
2018-06-04T20:31:30.664Z,35.17
2018-06-04T20:33:58.744Z,32.77
2018-06-04T20:36:26.818Z,33.57
2018-06-04T20:38:54.867Z,34.00
2018-06-04T20:41:22.966Z,32.23
2018-06-04T20:43:50.919Z,34.53
2018-06-04T20:46:20.133Z,33.80
2018-06-04T20:48:48.160Z,36.23
2018-06-04T20:51:16.299Z,38.63
2018-06-04T20:53:44.250Z,39.07
2018-06-04T20:56:12.602Z,38.50
2018-06-04T20:58:41.859Z,38.40
2018-06-04T21:01:10.171Z,35.47
2018-06-04T21:03:38.243Z,32.63
2018-06-04T21:06:06.370Z,35.70
2018-06-04T21:08:34.681Z,34.97
2018-06-04T21:11:02.779Z,38.07
2018-06-04T21:13:31.037Z,38.60
2018-06-04T21:15:59.796Z,36.67
2018-06-04T21:18:27.838Z,41.10
2018-06-04T21:20:55.752Z,42.20
2018-06-04T21:23:25.033Z,43.27
2018-06-04T21:25:53.548Z,40.83
2018-06-04T21:28:21.996Z,44.87
2018-06-04T21:30:50.314Z,47.30
2018-06-04T21:33:18.566Z,47.00
2018-06-04T21:35:46.630Z,47.20
2018-06-04T21:38:14.717Z,48.67
2018-06-04T21:40:42.762Z,51.37
2018-06-04T21:43:11.254Z,49.90
2018-06-04T21:45:39.361Z,56.07
2018-06-04T21:48:07.411Z,56.23
2018-06-04T21:50:35.647Z,49.33
2018-06-04T21:53:03.718Z,55.13
2018-06-04T21:55:32.050Z,55.07
2018-06-04T21:58:01.085Z,57.67
2018-06-04T22:00:29.295Z,49.77
2018-06-04T22:02:58.852Z,52.03
2018-06-04T22:05:26.958Z,57.83
2018-06-04T22:07:55.009Z,54.67
2018-06-04T22:10:23.307Z,57.90
2018-06-04T22:12:51.335Z,59.33
2018-06-04T22:15:20.249Z,55.70
2018-06-04T22:17:48.557Z,54.80
2018-06-04T22:20:17.171Z,56.33
2018-06-04T22:22:45.303Z,53.70
2018-06-04T22:25:13.399Z,57.97
2018-06-04T22:27:42.131Z,51.07
2018-06-04T22:30:10.122Z,50.90
2018-06-04T22:32:38.136Z,54.33
2018-06-04T22:35:06.429Z,52.70
2018-06-04T22:37:34.840Z,54.87
2018-06-04T22:40:02.888Z,53.83
2018-06-04T22:42:31.095Z,56.43
2018-06-04T22:44:59.366Z,59.23
2018-06-04T22:47:27.623Z,57.43
2018-06-04T22:49:55.508Z,49.23
2018-06-04T22:52:23.570Z,47.60
2018-06-04T22:54:51.912Z,55.80
2018-06-04T22:57:20.767Z,55.53
2018-06-04T22:59:49.080Z,54.07
2018-06-04T23:02:17.052Z,51.37
2018-06-04T23:04:45.389Z,56.97
2018-06-04T23:07:13.427Z,60.97
2018-06-04T23:09:41.527Z,53.70
2018-06-04T23:12:09.562Z,49.63
2018-06-04T23:14:37.856Z,56.53
2018-06-04T23:17:05.881Z,54.73
2018-06-04T23:19:34.003Z,57.70
2018-06-04T23:22:02.248Z,57.53
2018-06-04T23:24:31.230Z,52.53
2018-06-04T23:26:59.438Z,57.07
2018-06-04T23:29:27.708Z,59.53
2018-06-04T23:31:56.843Z,53.93
2018-06-04T23:34:25.077Z,54.53
2018-06-04T23:36:53.064Z,57.03
2018-06-04T23:39:21.022Z,55.07
2018-06-04T23:41:49.325Z,51.10
2018-06-04T23:44:17.575Z,51.03
2018-06-04T23:46:45.815Z,53.73
2018-06-04T23:49:13.758Z,51.33
2018-06-04T23:51:41.980Z,52.87
2018-06-04T23:54:10.260Z,53.40
2018-06-04T23:56:38.390Z,50.20
2018-06-04T23:59:07.000Z,50.73
